Aviation Digital Data Service (ADDS)

Output produced by TAFs form (0937 UTC 21 April 2014)
found at http://aviationweather.gov/adds/tafs/
 
KTCC 210525Z 2106/2206 VRB05KT P6SM SCT120 
     FM211400 03015KT P6SM SCT120 
     FM211900 06011KT P6SM SCT200 
     FM220100 09010KT P6SM BKN200